sensor_id;sensor_type;location;lat;lon;timestamp;P1;durP1;ratioP1;P2;durP2;ratioP2
14528;SDS011;7351;51.194;4.098;2022-08-25T00:01:00;7.03;;;6.43;;
14528;SDS011;7351;51.194;4.098;2022-08-25T00:03:33;7.25;;;6.78;;
14528;SDS011;7351;51.194;4.098;2022-08-25T00:06:00;11.27;;;6.57;;
14528;SDS011;7351;51.194;4.098;2022-08-25T00:08:29;7.32;;;6.78;;
14528;SDS011;7351;51.194;4.098;2022-08-25T00:10:59;7.82;;;7.25;;
14528;SDS011;7351;51.194;4.098;2022-08-25T00:13:26;7.82;;;7.32;;
14528;SDS011;7351;51.194;4.098;2022-08-25T00:15:54;8.13;;;7.43;;
14528;SDS011;7351;51.194;4.098;2022-08-25T00:18:22;7.97;;;7.50;;
14528;SDS011;7351;51.194;4.098;2022-08-25T00:20:49;14.13;;;7.60;;
14528;SDS011;7351;51.194;4.098;2022-08-25T00:23:16;7.63;;;6.97;;
14528;SDS011;7351;51.194;4.098;2022-08-25T00:25:43;7.15;;;6.55;;
14528;SDS011;7351;51.194;4.098;2022-08-25T00:28:11;7.82;;;7.32;;
14528;SDS011;7351;51.194;4.098;2022-08-25T00:30:39;7.38;;;6.78;;
14528;SDS011;7351;51.194;4.098;2022-08-25T00:33:07;7.68;;;7.07;;
14528;SDS011;7351;51.194;4.098;2022-08-25T00:35:35;8.02;;;7.53;;
14528;SDS011;7351;51.194;4.098;2022-08-25T00:38:04;8.07;;;7.57;;
14528;SDS011;7351;51.194;4.098;2022-08-25T00:40:31;8.52;;;7.82;;
14528;SDS011;7351;51.194;4.098;2022-08-25T00:42:58;9.15;;;7.75;;
14528;SDS011;7351;51.194;4.098;2022-08-25T00:45:25;9.32;;;8.50;;
14528;SDS011;7351;51.194;4.098;2022-08-25T00:47:52;9.73;;;8.85;;
14528;SDS011;7351;51.194;4.098;2022-08-25T00:50:21;9.25;;;8.18;;
14528;SDS011;7351;51.194;4.098;2022-08-25T00:52:50;10.32;;;9.32;;
14528;SDS011;7351;51.194;4.098;2022-08-25T00:55:20;10.73;;;10.02;;
14528;SDS011;7351;51.194;4.098;2022-08-25T00:57:51;9.43;;;8.82;;
14528;SDS011;7351;51.194;4.098;2022-08-25T01:00:21;8.40;;;7.93;;
14528;SDS011;7351;51.194;4.098;2022-08-25T01:02:50;9.18;;;8.13;;
14528;SDS011;7351;51.194;4.098;2022-08-25T01:05:18;7.97;;;7.50;;
14528;SDS011;7351;51.194;4.098;2022-08-25T01:07:46;9.20;;;8.60;;
14528;SDS011;7351;51.194;4.098;2022-08-25T01:10:15;9.70;;;8.90;;
14528;SDS011;7351;51.194;4.098;2022-08-25T01:12:43;8.57;;;8.15;;
14528;SDS011;7351;51.194;4.098;2022-08-25T01:15:11;9.52;;;8.82;;
14528;SDS011;7351;51.194;4.098;2022-08-25T01:17:44;10.65;;;10.05;;
14528;SDS011;7351;51.194;4.098;2022-08-25T01:20:12;11.43;;;10.25;;
14528;SDS011;7351;51.194;4.098;2022-08-25T01:22:41;11.30;;;10.60;;
14528;SDS011;7351;51.194;4.098;2022-08-25T01:25:19;10.57;;;9.80;;
14528;SDS011;7351;51.194;4.098;2022-08-25T01:27:53;10.00;;;9.38;;
14528;SDS011;7351;51.194;4.098;2022-08-25T01:30:21;10.70;;;10.02;;
14528;SDS011;7351;51.194;4.098;2022-08-25T01:32:48;12.95;;;11.77;;
14528;SDS011;7351;51.194;4.098;2022-08-25T01:35:15;11.07;;;10.38;;
14528;SDS011;7351;51.194;4.098;2022-08-25T01:37:44;10.18;;;9.45;;
14528;SDS011;7351;51.194;4.098;2022-08-25T01:40:11;11.52;;;10.40;;
14528;SDS011;7351;51.194;4.098;2022-08-25T01:42:41;11.68;;;10.45;;
14528;SDS011;7351;51.194;4.098;2022-08-25T01:45:18;12.00;;;11.30;;
14528;SDS011;7351;51.194;4.098;2022-08-25T01:47:45;11.02;;;10.15;;
14528;SDS011;7351;51.194;4.098;2022-08-25T01:50:12;11.95;;;11.00;;
14528;SDS011;7351;51.194;4.098;2022-08-25T01:52:46;11.15;;;10.20;;
14528;SDS011;7351;51.194;4.098;2022-08-25T01:55:17;11.77;;;11.00;;
14528;SDS011;7351;51.194;4.098;2022-08-25T01:57:44;11.43;;;10.55;;
14528;SDS011;7351;51.194;4.098;2022-08-25T02:00:12;11.85;;;10.85;;
14528;SDS011;7351;51.194;4.098;2022-08-25T02:02:40;11.75;;;10.73;;
14528;SDS011;7351;51.194;4.098;2022-08-25T02:05:07;10.80;;;10.05;;
14528;SDS011;7351;51.194;4.098;2022-08-25T02:07:35;11.55;;;10.45;;
14528;SDS011;7351;51.194;4.098;2022-08-25T02:10:05;11.32;;;10.50;;
14528;SDS011;7351;51.194;4.098;2022-08-25T02:12:33;12.07;;;11.05;;
14528;SDS011;7351;51.194;4.098;2022-08-25T02:15:01;11.48;;;10.75;;
14528;SDS011;7351;51.194;4.098;2022-08-25T02:17:30;11.20;;;10.40;;
14528;SDS011;7351;51.194;4.098;2022-08-25T02:19:57;11.05;;;10.23;;
14528;SDS011;7351;51.194;4.098;2022-08-25T02:22:24;11.98;;;11.23;;
14528;SDS011;7351;51.194;4.098;2022-08-25T02:24:51;15.85;;;12.15;;
14528;SDS011;7351;51.194;4.098;2022-08-25T02:27:19;13.98;;;13.18;;
14528;SDS011;7351;51.194;4.098;2022-08-25T02:29:48;12.82;;;11.90;;
14528;SDS011;7351;51.194;4.098;2022-08-25T02:32:15;13.57;;;12.40;;
14528;SDS011;7351;51.194;4.098;2022-08-25T02:34:42;14.25;;;13.20;;
14528;SDS011;7351;51.194;4.098;2022-08-25T02:37:09;14.38;;;13.65;;
14528;SDS011;7351;51.194;4.098;2022-08-25T02:39:37;14.48;;;13.52;;
14528;SDS011;7351;51.194;4.098;2022-08-25T02:42:04;14.20;;;13.40;;
14528;SDS011;7351;51.194;4.098;2022-08-25T02:44:32;15.80;;;14.73;;
14528;SDS011;7351;51.194;4.098;2022-08-25T02:47:00;15.55;;;14.35;;
14528;SDS011;7351;51.194;4.098;2022-08-25T02:49:27;15.15;;;14.15;;
14528;SDS011;7351;51.194;4.098;2022-08-25T02:51:54;16.00;;;14.95;;
14528;SDS011;7351;51.194;4.098;2022-08-25T02:54:22;15.93;;;15.02;;
14528;SDS011;7351;51.194;4.098;2022-08-25T02:56:50;15.77;;;14.32;;
14528;SDS011;7351;51.194;4.098;2022-08-25T02:59:17;14.93;;;13.93;;
14528;SDS011;7351;51.194;4.098;2022-08-25T03:01:45;16.85;;;15.75;;
14528;SDS011;7351;51.194;4.098;2022-08-25T03:04:12;16.80;;;15.70;;
14528;SDS011;7351;51.194;4.098;2022-08-25T03:06:39;17.40;;;16.13;;
14528;SDS011;7351;51.194;4.098;2022-08-25T03:09:06;20.27;;;16.15;;
14528;SDS011;7351;51.194;4.098;2022-08-25T03:11:33;17.50;;;16.02;;
14528;SDS011;7351;51.194;4.098;2022-08-25T03:14:02;17.27;;;16.17;;
14528;SDS011;7351;51.194;4.098;2022-08-25T03:16:29;17.85;;;16.73;;
14528;SDS011;7351;51.194;4.098;2022-08-25T03:18:58;16.08;;;15.02;;
14528;SDS011;7351;51.194;4.098;2022-08-25T03:21:26;17.88;;;16.67;;
14528;SDS011;7351;51.194;4.098;2022-08-25T03:23:54;16.60;;;15.40;;
14528;SDS011;7351;51.194;4.098;2022-08-25T03:26:23;17.73;;;16.38;;
14528;SDS011;7351;51.194;4.098;2022-08-25T03:29:08;16.40;;;15.35;;
14528;SDS011;7351;51.194;4.098;2022-08-25T03:31:35;16.67;;;15.05;;
14528;SDS011;7351;51.194;4.098;2022-08-25T03:34:04;16.13;;;15.05;;
14528;SDS011;7351;51.194;4.098;2022-08-25T03:36:31;17.70;;;16.30;;
14528;SDS011;7351;51.194;4.098;2022-08-25T03:38:58;17.20;;;16.00;;
14528;SDS011;7351;51.194;4.098;2022-08-25T03:41:28;16.10;;;15.00;;
14528;SDS011;7351;51.194;4.098;2022-08-25T03:43:56;18.10;;;16.58;;
14528;SDS011;7351;51.194;4.098;2022-08-25T03:46:25;16.55;;;15.45;;
14528;SDS011;7351;51.194;4.098;2022-08-25T03:48:54;16.30;;;14.93;;
14528;SDS011;7351;51.194;4.098;2022-08-25T03:51:24;16.27;;;14.85;;
14528;SDS011;7351;51.194;4.098;2022-08-25T03:53:53;15.23;;;14.13;;
14528;SDS011;7351;51.194;4.098;2022-08-25T03:56:21;15.53;;;14.23;;
14528;SDS011;7351;51.194;4.098;2022-08-25T03:58:48;16.43;;;14.77;;
14528;SDS011;7351;51.194;4.098;2022-08-25T04:01:16;15.98;;;14.95;;
14528;SDS011;7351;51.194;4.098;2022-08-25T04:03:43;15.80;;;14.40;;
14528;SDS011;7351;51.194;4.098;2022-08-25T04:06:10;16.17;;;14.98;;
14528;SDS011;7351;51.194;4.098;2022-08-25T04:08:39;15.18;;;13.98;;
14528;SDS011;7351;51.194;4.098;2022-08-25T04:11:07;16.63;;;15.17;;
14528;SDS011;7351;51.194;4.098;2022-08-25T04:13:35;16.83;;;14.98;;
14528;SDS011;7351;51.194;4.098;2022-08-25T04:16:02;16.60;;;15.43;;
14528;SDS011;7351;51.194;4.098;2022-08-25T04:18:34;15.25;;;13.88;;
14528;SDS011;7351;51.194;4.098;2022-08-25T04:21:02;15.43;;;14.10;;
14528;SDS011;7351;51.194;4.098;2022-08-25T04:23:31;15.77;;;14.27;;
14528;SDS011;7351;51.194;4.098;2022-08-25T04:25:59;15.90;;;14.73;;
14528;SDS011;7351;51.194;4.098;2022-08-25T04:28:27;15.50;;;14.43;;
14528;SDS011;7351;51.194;4.098;2022-08-25T04:30:54;15.20;;;13.90;;
14528;SDS011;7351;51.194;4.098;2022-08-25T04:33:21;16.03;;;14.80;;
14528;SDS011;7351;51.194;4.098;2022-08-25T04:35:48;15.57;;;14.33;;
14528;SDS011;7351;51.194;4.098;2022-08-25T04:38:17;14.53;;;13.47;;
14528;SDS011;7351;51.194;4.098;2022-08-25T04:40:54;14.60;;;13.37;;
14528;SDS011;7351;51.194;4.098;2022-08-25T04:43:23;16.00;;;14.53;;
14528;SDS011;7351;51.194;4.098;2022-08-25T04:45:51;15.13;;;13.88;;
14528;SDS011;7351;51.194;4.098;2022-08-25T04:48:20;15.60;;;14.47;;
14528;SDS011;7351;51.194;4.098;2022-08-25T04:50:47;16.40;;;15.10;;
14528;SDS011;7351;51.194;4.098;2022-08-25T04:53:15;16.23;;;15.03;;
14528;SDS011;7351;51.194;4.098;2022-08-25T04:55:43;18.40;;;14.73;;
14528;SDS011;7351;51.194;4.098;2022-08-25T04:58:12;16.70;;;15.10;;
14528;SDS011;7351;51.194;4.098;2022-08-25T05:00:41;17.17;;;15.57;;
14528;SDS011;7351;51.194;4.098;2022-08-25T05:03:08;16.10;;;14.67;;
14528;SDS011;7351;51.194;4.098;2022-08-25T05:05:36;16.17;;;14.60;;
14528;SDS011;7351;51.194;4.098;2022-08-25T05:08:03;15.27;;;14.20;;
14528;SDS011;7351;51.194;4.098;2022-08-25T05:10:32;14.27;;;13.27;;
14528;SDS011;7351;51.194;4.098;2022-08-25T05:12:59;16.00;;;14.40;;
14528;SDS011;7351;51.194;4.098;2022-08-25T05:15:26;16.30;;;15.03;;
14528;SDS011;7351;51.194;4.098;2022-08-25T05:18:12;17.93;;;14.17;;
14528;SDS011;7351;51.194;4.098;2022-08-25T05:20:40;15.03;;;13.83;;
14528;SDS011;7351;51.194;4.098;2022-08-25T05:23:07;16.87;;;15.73;;
14528;SDS011;7351;51.194;4.098;2022-08-25T05:25:34;17.47;;;16.23;;
14528;SDS011;7351;51.194;4.098;2022-08-25T05:28:01;16.40;;;15.20;;
14528;SDS011;7351;51.194;4.098;2022-08-25T05:30:28;18.07;;;16.37;;
14528;SDS011;7351;51.194;4.098;2022-08-25T05:32:55;17.90;;;16.37;;
14528;SDS011;7351;51.194;4.098;2022-08-25T05:35:24;17.47;;;15.70;;
14528;SDS011;7351;51.194;4.098;2022-08-25T05:37:51;16.47;;;14.97;;
14528;SDS011;7351;51.194;4.098;2022-08-25T05:40:18;16.00;;;14.53;;
14528;SDS011;7351;51.194;4.098;2022-08-25T05:42:46;17.33;;;15.93;;
14528;SDS011;7351;51.194;4.098;2022-08-25T05:45:14;16.33;;;15.27;;
14528;SDS011;7351;51.194;4.098;2022-08-25T05:47:42;15.90;;;14.47;;
14528;SDS011;7351;51.194;4.098;2022-08-25T05:50:09;16.10;;;14.93;;
14528;SDS011;7351;51.194;4.098;2022-08-25T05:52:38;15.17;;;14.27;;
14528;SDS011;7351;51.194;4.098;2022-08-25T05:55:06;15.57;;;13.97;;
14528;SDS011;7351;51.194;4.098;2022-08-25T05:57:33;14.97;;;13.40;;
14528;SDS011;7351;51.194;4.098;2022-08-25T06:00:00;14.83;;;13.77;;
14528;SDS011;7351;51.194;4.098;2022-08-25T06:02:29;15.43;;;13.70;;
14528;SDS011;7351;51.194;4.098;2022-08-25T06:05:13;13.77;;;12.77;;
14528;SDS011;7351;51.194;4.098;2022-08-25T06:07:44;15.13;;;12.97;;
14528;SDS011;7351;51.194;4.098;2022-08-25T06:10:12;14.57;;;13.27;;
14528;SDS011;7351;51.194;4.098;2022-08-25T06:12:39;13.73;;;12.38;;
14528;SDS011;7351;51.194;4.098;2022-08-25T06:15:09;14.63;;;13.30;;
14528;SDS011;7351;51.194;4.098;2022-08-25T06:17:37;15.55;;;13.95;;
14528;SDS011;7351;51.194;4.098;2022-08-25T06:20:08;14.77;;;13.27;;
14528;SDS011;7351;51.194;4.098;2022-08-25T06:22:36;13.67;;;12.47;;
14528;SDS011;7351;51.194;4.098;2022-08-25T06:25:06;14.00;;;13.13;;
14528;SDS011;7351;51.194;4.098;2022-08-25T06:27:35;14.50;;;13.18;;
14528;SDS011;7351;51.194;4.098;2022-08-25T06:30:02;15.38;;;14.07;;
14528;SDS011;7351;51.194;4.098;2022-08-25T06:32:30;14.85;;;13.55;;
14528;SDS011;7351;51.194;4.098;2022-08-25T06:34:58;22.98;;;14.95;;
14528;SDS011;7351;51.194;4.098;2022-08-25T06:37:24;16.80;;;15.55;;
14528;SDS011;7351;51.194;4.098;2022-08-25T06:39:52;17.85;;;16.58;;
14528;SDS011;7351;51.194;4.098;2022-08-25T06:42:21;19.17;;;17.52;;
14528;SDS011;7351;51.194;4.098;2022-08-25T06:44:48;19.83;;;17.85;;
14528;SDS011;7351;51.194;4.098;2022-08-25T06:47:15;21.73;;;19.67;;
14528;SDS011;7351;51.194;4.098;2022-08-25T06:49:43;19.67;;;18.27;;
14528;SDS011;7351;51.194;4.098;2022-08-25T06:52:11;22.65;;;14.95;;
14528;SDS011;7351;51.194;4.098;2022-08-25T06:54:38;15.15;;;13.75;;
14528;SDS011;7351;51.194;4.098;2022-08-25T06:57:06;14.15;;;11.75;;
14528;SDS011;7351;51.194;4.098;2022-08-25T06:59:35;12.50;;;11.30;;
14528;SDS011;7351;51.194;4.098;2022-08-25T07:02:03;12.48;;;11.38;;
14528;SDS011;7351;51.194;4.098;2022-08-25T07:04:31;11.32;;;10.20;;
14528;SDS011;7351;51.194;4.098;2022-08-25T07:06:58;14.05;;;10.57;;
14528;SDS011;7351;51.194;4.098;2022-08-25T07:09:25;10.50;;;9.43;;
14528;SDS011;7351;51.194;4.098;2022-08-25T07:11:52;14.70;;;11.13;;
14528;SDS011;7351;51.194;4.098;2022-08-25T07:14:19;17.25;;;13.05;;
14528;SDS011;7351;51.194;4.098;2022-08-25T07:16:48;17.52;;;13.50;;
14528;SDS011;7351;51.194;4.098;2022-08-25T07:19:15;21.20;;;14.90;;
14528;SDS011;7351;51.194;4.098;2022-08-25T07:21:44;16.90;;;13.73;;
14528;SDS011;7351;51.194;4.098;2022-08-25T07:24:14;21.13;;;14.20;;
14528;SDS011;7351;51.194;4.098;2022-08-25T07:26:41;23.38;;;13.60;;
14528;SDS011;7351;51.194;4.098;2022-08-25T07:29:11;16.25;;;12.52;;
14528;SDS011;7351;51.194;4.098;2022-08-25T07:31:42;16.92;;;12.52;;
14528;SDS011;7351;51.194;4.098;2022-08-25T07:34:11;16.98;;;10.65;;
14528;SDS011;7351;51.194;4.098;2022-08-25T07:36:55;13.50;;;10.38;;
14528;SDS011;7351;51.194;4.098;2022-08-25T07:39:23;13.95;;;9.60;;
14528;SDS011;7351;51.194;4.098;2022-08-25T07:41:51;10.98;;;8.60;;
14528;SDS011;7351;51.194;4.098;2022-08-25T07:44:19;17.10;;;9.63;;
14528;SDS011;7351;51.194;4.098;2022-08-25T07:46:47;15.27;;;8.63;;
14528;SDS011;7351;51.194;4.098;2022-08-25T07:49:15;9.20;;;8.30;;
14528;SDS011;7351;51.194;4.098;2022-08-25T07:51:43;20.73;;;9.02;;
14528;SDS011;7351;51.194;4.098;2022-08-25T07:54:10;12.80;;;7.95;;
14528;SDS011;7351;51.194;4.098;2022-08-25T07:56:37;10.35;;;7.70;;
14528;SDS011;7351;51.194;4.098;2022-08-25T07:59:07;12.82;;;8.70;;
14528;SDS011;7351;51.194;4.098;2022-08-25T08:01:35;13.85;;;8.68;;
14528;SDS011;7351;51.194;4.098;2022-08-25T08:04:04;9.45;;;8.65;;
14528;SDS011;7351;51.194;4.098;2022-08-25T08:06:39;9.80;;;8.90;;
14528;SDS011;7351;51.194;4.098;2022-08-25T08:09:06;9.60;;;8.57;;
14528;SDS011;7351;51.194;4.098;2022-08-25T08:11:34;14.80;;;8.27;;
14528;SDS011;7351;51.194;4.098;2022-08-25T08:14:05;10.38;;;8.70;;
14528;SDS011;7351;51.194;4.098;2022-08-25T08:16:33;11.70;;;8.15;;
14528;SDS011;7351;51.194;4.098;2022-08-25T08:19:00;13.85;;;8.00;;
14528;SDS011;7351;51.194;4.098;2022-08-25T08:21:28;11.45;;;7.35;;
14528;SDS011;7351;51.194;4.098;2022-08-25T08:23:58;12.95;;;6.55;;
14528;SDS011;7351;51.194;4.098;2022-08-25T08:26:27;12.57;;;6.95;;
14528;SDS011;7351;51.194;4.098;2022-08-25T08:29:01;15.77;;;8.02;;
14528;SDS011;7351;51.194;4.098;2022-08-25T08:31:28;17.45;;;7.15;;
14528;SDS011;7351;51.194;4.098;2022-08-25T08:33:56;10.00;;;7.47;;
14528;SDS011;7351;51.194;4.098;2022-08-25T08:36:24;9.55;;;7.35;;
14528;SDS011;7351;51.194;4.098;2022-08-25T08:38:53;11.07;;;7.90;;
14528;SDS011;7351;51.194;4.098;2022-08-25T08:41:29;29.92;;;8.85;;
14528;SDS011;7351;51.194;4.098;2022-08-25T08:44:30;6.28;;;5.65;;
14528;SDS011;7351;51.194;4.098;2022-08-25T08:47:09;9.75;;;6.45;;
14528;SDS011;7351;51.194;4.098;2022-08-25T08:49:46;10.57;;;6.72;;
14528;SDS011;7351;51.194;4.098;2022-08-25T08:52:28;13.18;;;6.90;;
14528;SDS011;7351;51.194;4.098;2022-08-25T08:55:04;10.10;;;5.30;;
14528;SDS011;7351;51.194;4.098;2022-08-25T08:57:50;8.07;;;5.78;;
14528;SDS011;7351;51.194;4.098;2022-08-25T09:00:20;8.32;;;5.60;;
14528;SDS011;7351;51.194;4.098;2022-08-25T09:02:49;11.25;;;5.22;;
14528;SDS011;7351;51.194;4.098;2022-08-25T09:05:23;6.47;;;5.57;;
14528;SDS011;7351;51.194;4.098;2022-08-25T09:07:56;5.95;;;5.35;;
14528;SDS011;7351;51.194;4.098;2022-08-25T09:10:32;11.52;;;5.47;;
14528;SDS011;7351;51.194;4.098;2022-08-25T09:13:08;8.55;;;4.90;;
14528;SDS011;7351;51.194;4.098;2022-08-25T09:15:43;6.07;;;5.40;;
14528;SDS011;7351;51.194;4.098;2022-08-25T09:18:33;7.82;;;5.72;;
14528;SDS011;7351;51.194;4.098;2022-08-25T09:21:12;8.23;;;5.00;;
14528;SDS011;7351;51.194;4.098;2022-08-25T09:23:49;11.18;;;5.05;;
14528;SDS011;7351;51.194;4.098;2022-08-25T09:26:31;15.05;;;4.82;;
14528;SDS011;7351;51.194;4.098;2022-08-25T09:29:05;7.78;;;4.28;;
14528;SDS011;7351;51.194;4.098;2022-08-25T09:31:35;10.75;;;5.30;;
14528;SDS011;7351;51.194;4.098;2022-08-25T09:34:06;6.47;;;4.82;;
14528;SDS011;7351;51.194;4.098;2022-08-25T09:36:44;9.23;;;4.72;;
14528;SDS011;7351;51.194;4.098;2022-08-25T09:39:12;7.15;;;4.55;;
14528;SDS011;7351;51.194;4.098;2022-08-25T09:41:41;7.97;;;5.07;;
14528;SDS011;7351;51.194;4.098;2022-08-25T09:44:17;10.38;;;4.85;;
14528;SDS011;7351;51.194;4.098;2022-08-25T09:46:55;5.15;;;4.38;;
14528;SDS011;7351;51.194;4.098;2022-08-25T09:49:36;9.60;;;5.10;;
14528;SDS011;7351;51.194;4.098;2022-08-25T09:52:20;11.73;;;4.35;;
14528;SDS011;7351;51.194;4.098;2022-08-25T09:55:26;7.03;;;4.25;;
14528;SDS011;7351;51.194;4.098;2022-08-25T09:57:59;10.27;;;4.25;;
14528;SDS011;7351;51.194;4.098;2022-08-25T10:00:30;9.82;;;4.07;;
14528;SDS011;7351;51.194;4.098;2022-08-25T10:03:02;11.05;;;5.15;;
14528;SDS011;7351;51.194;4.098;2022-08-25T10:05:31;10.43;;;4.88;;
14528;SDS011;7351;51.194;4.098;2022-08-25T10:08:09;7.53;;;4.13;;
14528;SDS011;7351;51.194;4.098;2022-08-25T10:10:39;9.50;;;4.60;;
14528;SDS011;7351;51.194;4.098;2022-08-25T10:13:11;9.82;;;4.80;;
14528;SDS011;7351;51.194;4.098;2022-08-25T10:15:41;10.13;;;5.25;;
14528;SDS011;7351;51.194;4.098;2022-08-25T10:18:17;4.90;;;4.50;;
14528;SDS011;7351;51.194;4.098;2022-08-25T10:20:59;8.10;;;3.92;;
14528;SDS011;7351;51.194;4.098;2022-08-25T10:23:34;7.30;;;4.68;;
14528;SDS011;7351;51.194;4.098;2022-08-25T10:26:04;9.82;;;5.35;;
14528;SDS011;7351;51.194;4.098;2022-08-25T10:28:38;5.00;;;4.47;;
14528;SDS011;7351;51.194;4.098;2022-08-25T10:31:17;7.97;;;5.28;;
14528;SDS011;7351;51.194;4.098;2022-08-25T10:33:51;5.25;;;4.32;;
14528;SDS011;7351;51.194;4.098;2022-08-25T10:36:30;6.65;;;4.13;;
14528;SDS011;7351;51.194;4.098;2022-08-25T10:39:08;7.35;;;4.38;;
14528;SDS011;7351;51.194;4.098;2022-08-25T10:41:47;12.52;;;5.50;;
14528;SDS011;7351;51.194;4.098;2022-08-25T10:44:32;8.60;;;4.47;;
14528;SDS011;7351;51.194;4.098;2022-08-25T10:47:43;6.45;;;3.92;;
14528;SDS011;7351;51.194;4.098;2022-08-25T10:50:22;12.43;;;5.45;;
14528;SDS011;7351;51.194;4.098;2022-08-25T10:53:00;6.38;;;4.60;;
14528;SDS011;7351;51.194;4.098;2022-08-25T10:55:40;11.60;;;4.72;;
14528;SDS011;7351;51.194;4.098;2022-08-25T10:58:16;5.88;;;4.05;;
14528;SDS011;7351;51.194;4.098;2022-08-25T11:00:53;13.85;;;4.50;;
14528;SDS011;7351;51.194;4.098;2022-08-25T11:03:35;8.85;;;4.63;;
14528;SDS011;7351;51.194;4.098;2022-08-25T11:06:13;4.75;;;4.30;;
14528;SDS011;7351;51.194;4.098;2022-08-25T11:08:46;6.72;;;5.18;;
14528;SDS011;7351;51.194;4.098;2022-08-25T11:11:19;16.48;;;4.38;;
14528;SDS011;7351;51.194;4.098;2022-08-25T11:13:52;4.53;;;4.10;;
14528;SDS011;7351;51.194;4.098;2022-08-25T11:16:27;5.15;;;4.40;;
14528;SDS011;7351;51.194;4.098;2022-08-25T11:19:04;5.72;;;4.13;;
14528;SDS011;7351;51.194;4.098;2022-08-25T11:21:39;5.03;;;4.07;;
14528;SDS011;7351;51.194;4.098;2022-08-25T11:24:27;5.78;;;4.22;;
14528;SDS011;7351;51.194;4.098;2022-08-25T11:27:00;8.63;;;4.20;;
14528;SDS011;7351;51.194;4.098;2022-08-25T11:29:32;5.68;;;3.85;;
14528;SDS011;7351;51.194;4.098;2022-08-25T11:32:03;6.13;;;4.00;;
14528;SDS011;7351;51.194;4.098;2022-08-25T11:34:34;4.57;;;3.50;;
14528;SDS011;7351;51.194;4.098;2022-08-25T11:37:04;3.90;;;3.60;;
14528;SDS011;7351;51.194;4.098;2022-08-25T11:43:01;7.05;;;3.70;;
14528;SDS011;7351;51.194;4.098;2022-08-25T11:45:48;6.75;;;3.67;;
14528;SDS011;7351;51.194;4.098;2022-08-25T11:48:38;5.45;;;3.53;;
14528;SDS011;7351;51.194;4.098;2022-08-25T11:51:28;8.73;;;4.63;;
14528;SDS011;7351;51.194;4.098;2022-08-25T11:54:15;5.22;;;3.80;;
14528;SDS011;7351;51.194;4.098;2022-08-25T11:56:53;8.43;;;4.00;;
14528;SDS011;7351;51.194;4.098;2022-08-25T12:02:29;5.00;;;4.10;;
14528;SDS011;7351;51.194;4.098;2022-08-25T12:05:00;4.20;;;3.83;;
14528;SDS011;7351;51.194;4.098;2022-08-25T12:07:31;3.72;;;3.40;;
14528;SDS011;7351;51.194;4.098;2022-08-25T12:10:53;3.95;;;3.63;;
14528;SDS011;7351;51.194;4.098;2022-08-25T12:13:38;7.75;;;4.07;;
14528;SDS011;7351;51.194;4.098;2022-08-25T12:19:23;4.55;;;3.92;;
14528;SDS011;7351;51.194;4.098;2022-08-25T12:21:52;10.25;;;4.60;;
14528;SDS011;7351;51.194;4.098;2022-08-25T12:24:23;9.80;;;3.95;;
14528;SDS011;7351;51.194;4.098;2022-08-25T12:27:10;7.32;;;3.72;;
14528;SDS011;7351;51.194;4.098;2022-08-25T12:29:48;4.85;;;4.00;;
14528;SDS011;7351;51.194;4.098;2022-08-25T12:32:24;5.43;;;3.63;;
14528;SDS011;7351;51.194;4.098;2022-08-25T12:35:16;7.30;;;5.53;;
14528;SDS011;7351;51.194;4.098;2022-08-25T12:40:52;8.77;;;5.68;;
14528;SDS011;7351;51.194;4.098;2022-08-25T12:43:24;7.43;;;6.72;;
14528;SDS011;7351;51.194;4.098;2022-08-25T12:45:54;12.35;;;8.85;;
14528;SDS011;7351;51.194;4.098;2022-08-25T12:48:58;10.57;;;8.38;;
14528;SDS011;7351;51.194;4.098;2022-08-25T12:51:26;18.08;;;13.05;;
14528;SDS011;7351;51.194;4.098;2022-08-25T12:54:11;12.50;;;11.43;;
14528;SDS011;7351;51.194;4.098;2022-08-25T12:56:44;13.60;;;12.05;;
14528;SDS011;7351;51.194;4.098;2022-08-25T12:59:15;11.35;;;10.27;;
14528;SDS011;7351;51.194;4.098;2022-08-25T13:04:57;18.55;;;11.40;;
14528;SDS011;7351;51.194;4.098;2022-08-25T13:07:41;15.57;;;12.23;;
14528;SDS011;7351;51.194;4.098;2022-08-25T13:10:21;12.68;;;11.43;;
14528;SDS011;7351;51.194;4.098;2022-08-25T13:12:58;12.85;;;11.57;;
14528;SDS011;7351;51.194;4.098;2022-08-25T13:15:34;14.20;;;11.63;;
14528;SDS011;7351;51.194;4.098;2022-08-25T13:20:53;13.98;;;11.02;;
14528;SDS011;7351;51.194;4.098;2022-08-25T13:23:27;12.93;;;11.63;;
14528;SDS011;7351;51.194;4.098;2022-08-25T13:25:55;10.40;;;9.35;;
14528;SDS011;7351;51.194;4.098;2022-08-25T13:28:25;14.73;;;9.57;;
14528;SDS011;7351;51.194;4.098;2022-08-25T13:30:59;10.15;;;9.43;;
14528;SDS011;7351;51.194;4.098;2022-08-25T13:33:28;12.55;;;9.98;;
14528;SDS011;7351;51.194;4.098;2022-08-25T13:35:57;10.10;;;7.18;;
14528;SDS011;7351;51.194;4.098;2022-08-25T13:38:43;10.55;;;7.18;;
14528;SDS011;7351;51.194;4.098;2022-08-25T13:41:16;9.38;;;8.02;;
14528;SDS011;7351;51.194;4.098;2022-08-25T13:43:46;8.90;;;8.10;;
14528;SDS011;7351;51.194;4.098;2022-08-25T13:46:17;9.80;;;9.10;;
14528;SDS011;7351;51.194;4.098;2022-08-25T13:48:45;10.85;;;8.85;;
14528;SDS011;7351;51.194;4.098;2022-08-25T13:51:20;12.25;;;9.07;;
14528;SDS011;7351;51.194;4.098;2022-08-25T13:53:50;14.63;;;8.90;;
14528;SDS011;7351;51.194;4.098;2022-08-25T13:56:22;12.30;;;10.95;;
14528;SDS011;7351;51.194;4.098;2022-08-25T13:59:00;9.77;;;9.07;;
14528;SDS011;7351;51.194;4.098;2022-08-25T14:01:30;8.98;;;7.72;;
14528;SDS011;7351;51.194;4.098;2022-08-25T14:06:48;11.63;;;10.52;;
14528;SDS011;7351;51.194;4.098;2022-08-25T14:09:38;10.73;;;9.77;;
14528;SDS011;7351;51.194;4.098;2022-08-25T14:12:17;11.82;;;10.38;;
14528;SDS011;7351;51.194;4.098;2022-08-25T14:14:59;10.40;;;9.60;;
14528;SDS011;7351;51.194;4.098;2022-08-25T14:17:27;11.40;;;10.13;;
14528;SDS011;7351;51.194;4.098;2022-08-25T14:19:54;10.98;;;9.82;;
14528;SDS011;7351;51.194;4.098;2022-08-25T14:22:22;14.73;;;13.13;;
14528;SDS011;7351;51.194;4.098;2022-08-25T14:24:50;17.38;;;16.15;;
14528;SDS011;7351;51.194;4.098;2022-08-25T14:27:18;15.93;;;14.60;;
14528;SDS011;7351;51.194;4.098;2022-08-25T14:29:45;13.82;;;12.93;;
14528;SDS011;7351;51.194;4.098;2022-08-25T14:32:14;16.67;;;15.35;;
14528;SDS011;7351;51.194;4.098;2022-08-25T14:34:42;15.43;;;13.88;;
14528;SDS011;7351;51.194;4.098;2022-08-25T14:37:11;16.52;;;15.13;;
14528;SDS011;7351;51.194;4.098;2022-08-25T14:39:39;13.27;;;12.30;;
14528;SDS011;7351;51.194;4.098;2022-08-25T14:42:06;15.60;;;14.50;;
14528;SDS011;7351;51.194;4.098;2022-08-25T14:44:33;16.05;;;14.88;;
14528;SDS011;7351;51.194;4.098;2022-08-25T14:47:04;18.90;;;17.35;;
14528;SDS011;7351;51.194;4.098;2022-08-25T14:49:35;18.75;;;17.50;;
14528;SDS011;7351;51.194;4.098;2022-08-25T14:52:07;29.05;;;26.98;;
14528;SDS011;7351;51.194;4.098;2022-08-25T14:54:38;26.00;;;23.25;;
14528;SDS011;7351;51.194;4.098;2022-08-25T14:57:05;25.42;;;23.10;;
14528;SDS011;7351;51.194;4.098;2022-08-25T14:59:32;27.88;;;26.05;;
14528;SDS011;7351;51.194;4.098;2022-08-25T15:01:59;28.85;;;26.38;;
14528;SDS011;7351;51.194;4.098;2022-08-25T15:04:26;29.20;;;27.13;;
14528;SDS011;7351;51.194;4.098;2022-08-25T15:06:57;34.75;;;32.33;;
14528;SDS011;7351;51.194;4.098;2022-08-25T15:09:25;27.45;;;25.55;;
14528;SDS011;7351;51.194;4.098;2022-08-25T15:11:52;27.25;;;25.05;;
14528;SDS011;7351;51.194;4.098;2022-08-25T15:14:21;24.48;;;22.65;;
14528;SDS011;7351;51.194;4.098;2022-08-25T15:16:51;23.33;;;21.63;;
14528;SDS011;7351;51.194;4.098;2022-08-25T15:19:20;26.08;;;23.60;;
14528;SDS011;7351;51.194;4.098;2022-08-25T15:21:50;28.35;;;26.38;;
14528;SDS011;7351;51.194;4.098;2022-08-25T15:24:19;34.25;;;32.22;;
14528;SDS011;7351;51.194;4.098;2022-08-25T15:26:50;34.85;;;32.40;;
14528;SDS011;7351;51.194;4.098;2022-08-25T15:29:19;43.78;;;40.30;;
14528;SDS011;7351;51.194;4.098;2022-08-25T15:31:47;42.25;;;39.13;;